Time;durP1;ratioP1;P1;durP2;ratioP2;P2;SDS_P1;SDS_P2;PMS_P1;PMS_P2;Temp;Humidity;BMP_temperature;BMP_pressure;BME280_temperature;BME280_humidity;BME280_pressure;Samples;Min_cycle;Max_cycle;Signal;HPM_P1;HPM_P2
2022/04/11 00:00:48;;;;;;;;;;;;;;;;;;;;;
2022/04/11 00:07:32;;;;;;;2.25;0.73;;;1.50;99.90;;;;;;6182708;23;20025;-87
2022/04/11 00:10:50;;;;;;;1.17;0.70;;;1.50;99.90;;;;;;6184551;23;20035;-87
2022/04/11 00:14:27;;;;;;;;;;;;;;;;;;;;;
2022/04/11 00:17:42;;;;;;;;;;;;;;;;;;;;;
2022/04/11 00:20:52;;;;;;;2.03;0.70;;;1.30;99.90;;;;;;6184397;23;20032;-86
2022/04/11 00:24:11;;;;;;;2.03;0.60;;;1.20;99.90;;;;;;6134123;23;20030;-86
2022/04/11 00:30:56;;;;;;;1.15;0.80;;;1.00;99.90;;;;;;6184578;23;20524;-87
2022/04/11 00:34:14;;;;;;;1.42;0.82;;;0.90;99.90;;;;;;6184029;23;20036;-88
2022/04/11 00:37:34;;;;;;;2.00;0.95;;;0.90;99.90;;;;;;6184400;23;20021;-85
2022/04/11 00:41:02;;;;;;;1.15;0.68;;;0.60;99.90;;;;;;6184735;23;20029;-88
2022/04/11 00:44:22;;;;;;;1.38;0.85;;;0.80;99.90;;;;;;6184199;23;20032;-87
2022/04/11 00:47:10;;;;;;;1.70;0.88;;;0.70;99.90;;;;;;6184231;23;20060;-88
2022/04/11 00:54:00;;;;;;;1.15;0.70;;;0.70;99.90;;;;;;6186105;23;20012;-87
2022/04/11 00:57:15;;;;;;;;;;;;;;;;;;;;;
2022/04/11 01:00:29;;;;;;;2.10;0.88;;;0.60;99.90;;;;;;6188677;23;20100;-86
2022/04/11 01:04:04;;;;;;;5.03;1.20;;;0.50;99.90;;;;;;6185099;23;20479;-85
2022/04/11 01:07:22;;;;;;;;;;;;;;;;;;;;;
2022/04/11 01:10:21;;;;;;;;;;;;;;;;;;;;;
2022/04/11 01:13:31;;;;;;;2.28;0.95;;;0.40;99.90;;;;;;6186250;23;20107;-86
2022/04/11 01:17:11;;;;;;;3.33;1.00;;;0.40;99.90;;;;;;6185512;23;20522;-86
2022/04/11 01:20:13;;;;;;;2.72;0.93;;;0.40;99.90;;;;;;6160772;23;20092;-89
2022/04/11 01:23:25;;;;;;;2.17;1.15;;;0.30;99.90;;;;;;6161604;23;20028;-87
2022/04/11 01:27:03;;;;;;;1.42;0.93;;;0.30;99.90;;;;;;6185835;23;20052;-88
2022/04/11 01:30:17;;;;;;;1.63;0.93;;;0.30;99.90;;;;;;6156190;23;20424;-86
2022/04/11 01:37:12;;;;;;;4.65;1.83;;;0.30;99.90;;;;;;6109268;23;20028;-86
2022/04/11 01:40:40;;;;;;;2.20;1.10;;;0.20;99.90;;;;;;6186032;23;20036;-89
2022/04/11 01:43:46;;;;;;;;;;;;;;;;;;;;;
2022/04/11 01:46:46;;;;;;;;;;;;;;;;;;;;;
2022/04/11 01:49:58;;;;;;;;;;;;;;;;;;;;;
2022/04/11 01:53:18;;;;;;;2.08;0.90;;;0.20;99.90;;;;;;6185524;23;20017;-88
2022/04/11 02:00:13;;;;;;;2.60;1.10;;;0.20;99.90;;;;;;6185318;23;20458;-88
2022/04/11 02:03:32;;;;;;;3.17;1.08;;;0.30;99.90;;;;;;6184212;23;20143;-91
2022/04/11 02:06:45;;;;;;;2.88;1.25;;;0.20;99.90;;;;;;6185878;23;20032;-88
2022/04/11 02:09:42;;;;;;;1.58;1.00;;;0.30;99.90;;;;;;6185416;23;20032;-86
2022/04/11 02:13:01;;;;;;;1.77;1.20;;;0.30;99.90;;;;;;6183952;23;20032;-87
2022/04/11 02:16:02;;;;;;;;;;;0.20;99.90;;;;;;6182514;23;20013;-88
2022/04/11 02:19:45;;;;;;;;;;;;;;;;;;;;;
2022/04/11 02:22:15;;;;;;;2.65;1.33;;;0.20;99.90;;;;;;6185390;23;20311;-87
2022/04/11 08:48:14;;;;;;;0.88;0.60;;;9.20;99.90;;;;;;6277013;22;20456;-82
2022/04/11 08:50:40;;;;;;;0.60;0.30;;;9.40;99.90;;;;;;6250109;22;20022;-83
2022/04/11 08:53:05;;;;;;;2.42;0.32;;;9.40;99.90;;;;;;6250168;22;20028;-85
2022/04/11 08:55:31;;;;;;;1.90;0.40;;;10.00;99.90;;;;;;6277489;22;20077;-87
2022/04/11 08:57:58;;;;;;;0.60;0.30;;;9.60;99.90;;;;;;6277606;22;20098;-88
2022/04/11 09:00:24;;;;;;;1.02;0.40;;;9.80;99.90;;;;;;6277611;22;20384;-86
2022/04/11 09:02:49;;;;;;;0.50;0.30;;;9.90;99.90;;;;;;6249295;22;20019;-84
2022/04/11 09:05:25;;;;;;;1.13;0.40;;;10.10;99.90;;;;;;6277174;22;20042;-85
2022/04/11 09:07:56;;;;;;;0.75;0.40;;;10.80;99.90;;;;;;6250634;22;20016;-88
2022/04/11 09:10:27;;;;;;;1.05;0.30;;;10.30;99.90;;;;;;6249629;22;20020;-88
2022/04/11 09:12:57;;;;;;;2.70;0.65;;;11.10;99.90;;;;;;6277340;22;20310;-85
2022/04/11 09:15:24;;;;;;;4.70;0.40;;;10.70;99.90;;;;;;6277135;22;20012;-87
2022/04/11 09:17:51;;;;;;;3.03;0.40;;;11.20;99.90;;;;;;6276548;22;20342;-89
2022/04/11 09:20:21;;;;;;;2.53;0.43;;;11.00;99.90;;;;;;6250149;22;20030;-87
2022/04/11 09:22:48;;;;;;;1.75;0.28;;;11.00;99.90;;;;;;6277325;22;20016;-89
2022/04/11 09:25:19;;;;;;;0.95;0.30;;;11.30;99.90;;;;;;6250575;22;20030;-89
2022/04/11 09:27:46;;;;;;;2.17;0.50;;;11.30;99.90;;;;;;6277336;22;20027;-86
2022/04/11 09:30:27;;;;;;;1.13;0.30;;;11.60;99.90;;;;;;6276993;22;20069;-82
2022/04/11 09:32:55;;;;;;;1.08;0.30;;;11.30;99.90;;;;;;6277197;22;20048;-91
2022/04/11 09:35:23;;;;;;;1.80;0.63;;;11.30;99.90;;;;;;6277195;22;20054;-84
2022/04/11 09:38:09;;;;;;;1.25;0.40;;;11.40;99.90;;;;;;6276986;22;20066;-92
2022/04/11 09:40:36;;;;;;;2.08;0.20;;;11.60;99.90;;;;;;6250539;22;20062;-84
2022/04/11 09:43:02;;;;;;;0.73;0.40;;;11.70;99.90;;;;;;6249842;22;20016;-84
2022/04/11 09:45:27;;;;;;;2.17;0.40;;;11.80;99.90;;;;;;6249128;22;20050;-88
2022/04/11 09:48:04;;;;;;;6.28;0.70;;;12.10;99.90;;;;;;6276301;22;20019;-87
2022/04/11 09:50:31;;;;;;;2.03;0.40;;;12.00;98.40;;;;;;6277244;22;20016;-82
2022/04/11 09:53:10;;;;;;;2.83;0.40;;;12.10;99.90;;;;;;6277314;22;20023;-82
2022/04/11 09:55:36;;;;;;;2.05;0.43;;;12.20;99.90;;;;;;6277264;22;20357;-84
2022/04/11 09:58:05;;;;;;;3.13;0.70;;;12.30;99.70;;;;;;6277130;22;20349;-83
2022/04/11 10:00:39;;;;;;;1.42;0.35;;;12.40;98.80;;;;;;6277149;22;20016;-81
2022/04/11 10:03:05;;;;;;;0.73;0.30;;;12.50;99.40;;;;;;6276711;22;20079;-78
2022/04/11 10:05:35;;;;;;;2.40;0.30;;;12.70;98.30;;;;;;6249418;22;20012;-82
2022/04/11 10:08:04;;;;;;;0.88;0.25;;;12.80;97.60;;;;;;6277363;22;20023;-82
2022/04/11 10:10:34;;;;;;;2.03;0.40;;;13.00;96.60;;;;;;6250046;22;20016;-83
2022/04/11 10:13:07;;;;;;;1.70;0.40;;;13.10;96.10;;;;;;6278132;22;20053;-84
2022/04/11 10:15:33;;;;;;;2.63;0.40;;;13.30;99.90;;;;;;6277704;22;20019;-82
2022/04/11 10:17:59;;;;;;;1.75;0.30;;;13.30;97.40;;;;;;6277131;22;20055;-82
2022/04/11 10:20:30;;;;;;;3.83;0.47;;;13.70;98.10;;;;;;6250265;22;20077;-82
2022/04/11 10:23:15;;;;;;;0.65;0.45;;;13.50;94.80;;;;;;6276734;22;20024;-84
2022/04/11 10:25:46;;;;;;;2.38;0.40;;;13.50;97.70;;;;;;6125349;23;20026;-81
2022/04/11 10:28:16;;;;;;;1.85;0.40;;;13.80;97.60;;;;;;6126340;23;20018;-84
2022/04/11 10:30:43;;;;;;;0.40;0.30;;;14.10;97.00;;;;;;6126974;23;20349;-82
2022/04/11 10:33:08;;;;;;;0.77;0.35;;;14.40;95.10;;;;;;6125533;23;20092;-84
2022/04/11 10:35:40;;;;;;;0.85;0.30;;;14.10;83.20;;;;;;6126122;23;20491;-84
2022/04/11 10:38:08;;;;;;;0.60;0.30;;;14.30;89.70;;;;;;6125379;23;20030;-84
2022/04/11 10:40:36;;;;;;;1.67;0.50;;;14.10;93.50;;;;;;6125069;23;20325;-82
2022/04/11 10:43:08;;;;;;;0.88;0.45;;;14.60;92.20;;;;;;6124335;23;20443;-82
2022/04/11 10:45:36;;;;;;;2.58;0.50;;;14.30;90.70;;;;;;6124472;23;20018;-82
2022/04/11 10:48:06;;;;;;;1.38;0.40;;;14.40;89.70;;;;;;6123660;23;20129;-83
2022/04/11 10:50:43;;;;;;;1.50;0.30;;;14.50;88.00;;;;;;6123189;23;20018;-81
2022/04/11 10:53:24;;;;;;;1.55;0.40;;;14.70;87.60;;;;;;6124630;23;20160;-82
2022/04/11 10:55:56;;;;;;;1.42;0.50;;;14.50;86.10;;;;;;6123927;23;20018;-82
2022/04/11 10:58:23;;;;;;;2.42;0.40;;;14.50;83.20;;;;;;6124794;23;20033;-82
2022/04/11 11:00:51;;;;;;;0.60;0.40;;;14.30;89.70;;;;;;6100368;23;20146;-85
2022/04/11 11:03:17;;;;;;;1.83;0.35;;;14.30;84.50;;;;;;6233716;22;20024;-84
2022/04/11 11:05:48;;;;;;;0.77;0.30;;;14.40;86.60;;;;;;6277138;22;20062;-82
2022/04/11 11:08:13;;;;;;;1.02;0.30;;;14.60;88.10;;;;;;6250827;22;20106;-84
2022/04/11 11:10:45;;;;;;;0.88;0.30;;;14.80;89.20;;;;;;6250132;22;20058;-82
2022/04/11 11:13:36;;;;;;;2.35;0.40;;;14.90;87.40;;;;;;6277676;22;20023;-81
2022/04/11 11:16:07;;;;;;;1.33;0.50;;;14.90;81.40;;;;;;6276383;22;20027;-82
2022/04/11 11:18:48;;;;;;;2.10;0.40;;;13.90;79.20;;;;;;6277556;22;20067;-83
2022/04/11 11:21:20;;;;;;;1.00;0.50;;;15.50;84.50;;;;;;6250641;22;20098;-82
2022/04/11 11:24:04;;;;;;;2.08;0.75;;;14.70;81.10;;;;;;6249815;22;20070;-80
2022/04/11 11:26:53;;;;;;;2.17;0.55;;;14.70;75.50;;;;;;6276670;22;20114;-81
2022/04/11 11:29:43;;;;;;;1.80;0.30;;;14.90;77.80;;;;;;6248685;22;20016;-83
2022/04/11 11:32:12;;;;;;;0.88;0.30;;;15.10;85.50;;;;;;6276051;22;20052;-87
2022/04/11 11:34:39;;;;;;;1.48;0.50;;;15.50;82.00;;;;;;6276008;22;20035;-83
2022/04/11 11:37:07;;;;;;;0.60;0.20;;;15.50;84.00;;;;;;6276313;22;20018;-83
2022/04/11 11:39:42;;;;;;;3.58;0.50;;;15.70;76.50;;;;;;6276014;22;20015;-83
2022/04/11 11:42:10;;;;;;;0.88;0.43;;;15.60;81.10;;;;;;6275804;22;20066;-84
2022/04/11 11:44:49;;;;;;;0.80;0.40;;;15.60;78.20;;;;;;6248491;22;20024;-84
2022/04/11 11:47:15;;;;;;;2.50;0.65;;;15.70;71.70;;;;;;6275429;22;20016;-84
2022/04/11 11:49:49;;;;;;;0.85;0.50;;;15.50;73.40;;;;;;6248850;22;20122;-83
2022/04/11 11:52:20;;;;;;;0.93;0.43;;;15.40;76.00;;;;;;6248863;22;20061;-83
2022/04/11 11:54:50;;;;;;;1.98;0.50;;;15.70;78.30;;;;;;6275958;22;20024;-83
2022/04/11 11:57:22;;;;;;;3.28;0.70;;;15.60;76.80;;;;;;6276183;22;20480;-85
2022/04/11 11:59:48;;;;;;;2.17;0.50;;;15.90;76.10;;;;;;6222901;22;20023;-83
2022/04/11 12:04:58;;;;;;;1.15;0.55;;;16.10;77.00;;;;;;6275826;22;20106;-82
2022/04/11 12:07:23;;;;;;;4.25;0.60;;;16.20;74.90;;;;;;6276149;22;20047;-83
2022/04/11 12:09:49;;;;;;;1.38;0.60;;;16.10;78.10;;;;;;6275559;22;20019;-82
2022/04/11 12:12:18;;;;;;;1.50;0.50;;;16.00;75.60;;;;;;6276303;22;20038;-83
2022/04/11 12:15:06;;;;;;;1.75;0.70;;;16.10;76.10;;;;;;6275810;22;20020;-83
2022/04/11 12:17:43;;;;;;;0.82;0.50;;;16.20;73.70;;;;;;6275651;22;20051;-83
2022/04/11 12:20:12;;;;;;;1.85;0.70;;;16.10;74.40;;;;;;6275537;22;20024;-83
2022/04/11 12:22:38;;;;;;;2.83;0.70;;;16.00;76.40;;;;;;6275934;22;20020;-83
2022/04/11 12:25:25;;;;;;;1.83;0.60;;;16.20;71.60;;;;;;6275867;22;20062;-84
2022/04/11 12:27:51;;;;;;;2.75;0.70;;;16.00;72.70;;;;;;6275260;22;20019;-88
2022/04/11 12:30:17;;;;;;;1.70;0.70;;;16.10;75.80;;;;;;6270418;22;20457;-86
2022/04/11 12:32:43;;;;;;;2.38;0.70;;;16.10;70.90;;;;;;6275759;22;20019;-87
2022/04/11 12:35:19;;;;;;;2.35;1.20;;;16.10;70.20;;;;;;6276307;22;20031;-92
2022/04/11 12:37:57;;;;;;;3.28;0.70;;;16.10;68.70;;;;;;6250892;22;20077;-92
2022/04/11 12:40:42;;;;;;;4.13;0.90;;;16.20;71.40;;;;;;6277830;22;20019;-91
2022/04/11 12:43:07;;;;;;;1.92;0.60;;;16.30;70.90;;;;;;6253057;22;20455;-83
2022/04/11 12:45:34;;;;;;;1.67;0.60;;;16.30;69.90;;;;;;6250862;22;20058;-86
2022/04/11 12:48:00;;;;;;;2.50;0.70;;;16.40;72.90;;;;;;6276360;22;20069;-89
2022/04/11 12:50:26;;;;;;;1.60;0.70;;;16.60;72.20;;;;;;6277056;22;20106;-90
2022/04/11 12:52:52;;;;;;;3.63;0.85;;;16.70;66.60;;;;;;6249995;22;20472;-88
2022/04/11 12:55:24;;;;;;;1.50;0.68;;;16.70;68.60;;;;;;6277621;22;20024;-88
2022/04/11 12:58:00;;;;;;;2.08;0.60;;;16.60;75.10;;;;;;6277660;22;20022;-89
2022/04/11 13:00:25;;;;;;;;;;;16.60;72.20;;;;;;6278248;22;20020;-87
2022/04/11 13:02:52;;;;;;;2.95;0.70;;;16.60;69.50;;;;;;6278480;22;19922;-92
2022/04/11 13:05:18;;;;;;;1.73;0.60;;;16.80;70.20;;;;;;6249909;22;20480;-88
2022/04/11 13:07:48;;;;;;;1.40;0.60;;;16.90;73.20;;;;;;6250353;22;20055;-92
2022/04/11 13:10:14;;;;;;;2.08;0.80;;;16.70;66.40;;;;;;6277468;22;20028;-90
2022/04/11 13:12:40;;;;;;;1.85;0.80;;;16.60;68.20;;;;;;6277733;22;20020;-87
2022/04/11 13:15:07;;;;;;;2.50;0.70;;;16.70;69.90;;;;;;6278032;22;20028;-95
2022/04/11 13:20:21;;;;;;;3.13;0.90;;;17.00;67.70;;;;;;6277273;22;20024;-84
2022/04/11 13:22:46;;;;;;;1.13;0.60;;;17.10;67.90;;;;;;6277102;22;20457;-85
2022/04/11 13:25:12;;;;;;;4.10;0.90;;;16.90;66.60;;;;;;6277717;22;20015;-85
2022/04/11 13:27:38;;;;;;;3.28;0.80;;;16.90;69.20;;;;;;6277833;22;20055;-83
2022/04/11 13:30:04;;;;;;;2.33;0.88;;;16.80;67.60;;;;;;6249953;22;20023;-84
2022/04/11 13:32:29;;;;;;;4.35;1.00;;;16.90;68.70;;;;;;6250315;22;20026;-86
2022/04/11 13:34:55;;;;;;;2.17;0.75;;;16.90;66.00;;;;;;6276726;22;20015;-83
2022/04/11 13:37:21;;;;;;;1.33;0.80;;;16.70;68.70;;;;;;6276912;22;20028;-85
2022/04/11 13:39:47;;;;;;;1.73;1.00;;;16.70;71.30;;;;;;6278644;22;20381;-84
2022/04/11 13:42:13;;;;;;;0.98;0.68;;;16.60;66.40;;;;;;6251302;22;20434;-83
2022/04/11 13:44:39;;;;;;;1.40;0.75;;;16.60;69.10;;;;;;6279893;22;20027;-85
2022/04/11 13:47:05;;;;;;;1.90;0.80;;;16.60;68.10;;;;;;6277296;22;20019;-84
2022/04/11 13:49:32;;;;;;;2.75;0.90;;;16.70;68.80;;;;;;6277130;22;20026;-83
2022/04/11 13:51:58;;;;;;;4.15;1.02;;;16.60;68.20;;;;;;6250307;22;20020;-87
2022/04/11 13:54:24;;;;;;;2.75;0.85;;;16.70;68.80;;;;;;6277180;22;20046;-84
2022/04/11 13:56:50;;;;;;;4.65;0.90;;;16.90;67.40;;;;;;6276559;22;20454;-82
2022/04/11 13:59:20;;;;;;;1.60;0.90;;;17.10;70.80;;;;;;6277153;22;20020;-83
2022/04/11 14:01:47;;;;;;;2.10;0.77;;;16.90;68.80;;;;;;6276796;22;20031;-84
2022/04/11 14:04:13;;;;;;;2.38;0.70;;;16.70;65.50;;;;;;6249219;22;20020;-83
2022/04/11 14:06:40;;;;;;;2.33;0.80;;;16.80;65.80;;;;;;6249548;22;20020;-83
2022/04/11 14:09:08;;;;;;;3.25;0.77;;;16.70;69.60;;;;;;6249081;22;20514;-85
2022/04/11 14:11:35;;;;;;;4.00;1.30;;;16.80;65.00;;;;;;6248898;22;20024;-86
2022/04/11 14:14:01;;;;;;;2.33;1.10;;;16.70;67.90;;;;;;6276846;22;20327;-87
2022/04/11 14:16:27;;;;;;;3.92;1.40;;;16.60;67.10;;;;;;6249289;22;20026;-87
2022/04/11 14:18:53;;;;;;;2.05;0.77;;;16.60;67.10;;;;;;6249627;22;20418;-87
2022/04/11 14:21:19;;;;;;;1.52;0.73;;;16.50;67.00;;;;;;6276863;22;20042;-87
2022/04/11 14:23:45;;;;;;;2.38;0.95;;;16.50;67.40;;;;;;6277026;22;20016;-89
2022/04/11 14:26:11;;;;;;;3.70;0.88;;;16.60;68.60;;;;;;6276073;22;20027;-82
2022/04/11 14:28:39;;;;;;;2.65;0.90;;;16.60;67.70;;;;;;6275719;22;20376;-87
2022/04/11 14:31:05;;;;;;;2.13;0.98;;;16.50;67.50;;;;;;6249088;22;20030;-84
2022/04/11 14:33:31;;;;;;;1.40;0.70;;;16.50;71.00;;;;;;6249449;22;20016;-87
2022/04/11 14:35:57;;;;;;;2.78;1.10;;;16.40;68.70;;;;;;6249269;22;20020;-85
2022/04/11 14:38:23;;;;;;;1.75;0.80;;;16.40;71.90;;;;;;6279456;22;20030;-83
2022/04/11 14:40:49;;;;;;;3.13;1.08;;;16.40;70.20;;;;;;6280006;22;20395;-84
2022/04/11 14:43:15;;;;;;;1.95;0.88;;;16.30;67.50;;;;;;6280409;22;20024;-83
2022/04/11 14:45:41;;;;;;;2.78;0.80;;;16.30;69.40;;;;;;6279065;22;20062;-85
2022/04/11 14:48:08;;;;;;;2.63;0.90;;;16.30;70.10;;;;;;6275249;22;20097;-85
2022/04/11 14:50:35;;;;;;;3.00;0.70;;;16.30;69.40;;;;;;6276108;22;20015;-84
2022/04/11 14:53:02;;;;;;;2.15;0.90;;;16.10;67.80;;;;;;6276393;22;20030;-84
2022/04/11 14:55:28;;;;;;;4.40;1.17;;;16.00;67.20;;;;;;6275564;22;20442;-84
2022/04/11 14:57:53;;;;;;;1.80;0.80;;;15.90;67.60;;;;;;6280442;22;20038;-83
2022/04/11 15:00:19;;;;;;;1.08;0.70;;;15.90;70.80;;;;;;6250936;22;20027;-83
2022/04/11 15:02:46;;;;;;;3.33;1.00;;;15.80;72.60;;;;;;6276674;22;20503;-82
2022/04/11 15:05:11;;;;;;;1.48;0.60;;;15.70;73.10;;;;;;6279603;22;20023;-82
2022/04/11 15:07:37;;;;;;;3.50;0.93;;;15.60;73.30;;;;;;6251283;22;20031;-85
2022/04/11 15:10:03;;;;;;;2.05;1.00;;;15.40;72.00;;;;;;6251412;22;20089;-82
2022/04/11 15:12:29;;;;;;;2.13;0.88;;;15.20;73.40;;;;;;6277723;22;20087;-82
2022/04/11 15:14:55;;;;;;;3.05;1.10;;;15.20;78.50;;;;;;6278767;22;20020;-83
2022/04/11 15:17:24;;;;;;;4.70;1.20;;;15.00;76.20;;;;;;6279015;22;20027;-84
2022/04/11 15:19:49;;;;;;;3.63;0.90;;;14.80;82.50;;;;;;6249404;22;20085;-82
2022/04/11 15:22:15;;;;;;;2.72;1.17;;;14.70;88.60;;;;;;6275832;22;20098;-82
2022/04/11 15:24:41;;;;;;;4.93;1.20;;;14.50;91.00;;;;;;6275377;22;20030;-82
2022/04/11 15:27:08;;;;;;;4.68;1.25;;;14.40;93.80;;;;;;6277835;22;20016;-84
2022/04/11 15:29:34;;;;;;;2.95;0.85;;;14.20;95.40;;;;;;6277420;22;20334;-82
2022/04/11 15:32:09;;;;;;;2.60;0.93;;;14.20;95.30;;;;;;6276956;22;20028;-82
2022/04/11 15:34:35;;;;;;;4.65;0.80;;;14.10;94.30;;;;;;6277360;22;20495;-82
2022/04/11 15:37:01;;;;;;;3.22;0.95;;;13.90;97.60;;;;;;6277555;22;20023;-84
2022/04/11 15:39:26;;;;;;;3.63;0.88;;;13.90;98.90;;;;;;6249824;22;20441;-83
2022/04/11 15:41:52;;;;;;;5.80;1.00;;;13.70;99.90;;;;;;6276159;22;20054;-83
2022/04/11 15:44:18;;;;;;;2.22;1.00;;;13.60;99.90;;;;;;6249410;22;20023;-82
2022/04/11 15:46:43;;;;;;;3.70;1.20;;;13.40;99.90;;;;;;6275814;22;20053;-82
2022/04/11 15:49:09;;;;;;;4.70;1.20;;;13.60;99.90;;;;;;6276283;22;20093;-82
2022/04/11 15:51:36;;;;;;;4.68;1.10;;;12.90;99.90;;;;;;6276045;22;20396;-83
2022/04/11 15:54:04;;;;;;;2.63;1.00;;;12.80;99.90;;;;;;6275826;22;20056;-82
2022/04/11 15:56:29;;;;;;;2.92;1.00;;;12.80;99.90;;;;;;6276051;22;20019;-81
2022/04/11 15:58:55;;;;;;;4.10;1.17;;;12.70;99.90;;;;;;6276166;22;20024;-82
2022/04/11 16:01:20;;;;;;;5.85;1.85;;;12.60;99.90;;;;;;6275438;22;20099;-83
2022/04/11 16:03:46;;;;;;;5.70;1.48;;;12.50;99.90;;;;;;6275705;22;20070;-83
2022/04/11 16:06:12;;;;;;;4.05;1.30;;;12.40;99.90;;;;;;6275944;22;20338;-80
2022/04/11 16:08:38;;;;;;;4.57;1.35;;;12.30;99.90;;;;;;6275793;22;20024;-83
2022/04/11 16:11:03;;;;;;;6.22;1.38;;;12.20;99.90;;;;;;6222391;22;20019;-82
2022/04/11 16:13:30;;;;;;;4.07;1.08;;;12.10;99.90;;;;;;6275880;22;20024;-81
2022/04/11 16:15:57;;;;;;;4.22;1.25;;;11.90;99.90;;;;;;6276112;22;20016;-80
2022/04/11 16:18:24;;;;;;;5.60;1.38;;;12.20;99.90;;;;;;6247842;22;20024;-80
2022/04/11 16:20:50;;;;;;;4.75;1.40;;;11.80;99.90;;;;;;6277304;22;20098;-84
2022/04/11 16:23:16;;;;;;;4.45;1.90;;;11.70;99.90;;;;;;6277874;22;20077;-84
2022/04/11 16:25:42;;;;;;;5.35;2.55;;;11.60;99.90;;;;;;6278260;22;20016;-81
2022/04/11 16:28:08;;;;;;;11.57;2.88;;;11.90;99.90;;;;;;6278036;22;20016;-84
2022/04/11 16:30:34;;;;;;;5.43;2.00;;;11.50;99.90;;;;;;6277791;22;20468;-81
2022/04/11 16:33:00;;;;;;;3.20;1.30;;;11.40;99.90;;;;;;6278085;22;20326;-83
2022/04/11 16:35:26;;;;;;;3.42;1.00;;;11.70;99.90;;;;;;6277430;22;20036;-83
2022/04/11 16:37:55;;;;;;;4.70;1.55;;;11.50;99.90;;;;;;6250595;22;20062;-83
2022/04/11 16:40:22;;;;;;;5.38;1.90;;;11.60;99.90;;;;;;6250372;22;20098;-83
2022/04/11 16:42:48;;;;;;;4.78;1.60;;;11.30;99.90;;;;;;6278209;22;20016;-83
2022/04/11 16:45:14;;;;;;;4.38;1.85;;;11.20;99.90;;;;;;6278272;22;20020;-84
2022/04/11 16:52:11;;;;;;;5.82;1.67;;;11.20;99.90;;;;;;6254655;22;20028;-83
2022/04/11 16:54:38;;;;;;;12.93;1.85;;;11.10;99.90;;;;;;6247022;22;20020;-86
2022/04/11 16:57:05;;;;;;;5.82;1.95;;;11.10;99.90;;;;;;6247099;23;20411;-92
2022/04/11 16:59:31;;;;;;;6.57;1.33;;;11.10;99.90;;;;;;6248642;23;20083;-91
2022/04/11 17:01:56;;;;;;;3.20;1.38;;;11.10;99.90;;;;;;6247392;23;20074;-90
2022/04/11 17:04:22;;;;;;;6.13;1.35;;;10.90;99.90;;;;;;6247055;23;20023;-92
2022/04/11 17:06:48;;;;;;;6.38;1.40;;;10.90;99.90;;;;;;6247350;23;20035;-87
2022/04/11 17:09:15;;;;;;;7.50;2.28;;;10.80;99.90;;;;;;6245782;23;20033;-95
2022/04/11 17:11:40;;;;;;;6.45;2.30;;;11.40;99.90;;;;;;6224308;23;20446;-93
2022/04/11 17:14:07;;;;;;;4.88;1.40;;;10.80;99.90;;;;;;6258491;22;20051;-94
2022/04/11 17:19:17;;;;;;;5.13;2.03;;;10.50;99.90;;;;;;6250416;23;20473;-93
2022/04/11 17:21:44;;;;;;;4.35;1.50;;;10.40;99.90;;;;;;6246508;23;20031;-90
2022/04/11 17:24:10;;;;;;;5.22;2.00;;;10.40;99.90;;;;;;6246950;23;20434;-86
2022/04/11 17:26:38;;;;;;;6.72;1.88;;;10.30;99.90;;;;;;6247340;23;20023;-91
2022/04/11 17:29:04;;;;;;;8.02;1.40;;;10.20;99.90;;;;;;6247472;23;20103;-93
2022/04/11 17:31:32;;;;;;;2.47;1.10;;;10.10;99.90;;;;;;6252291;23;20016;-93
2022/04/11 17:33:59;;;;;;;8.23;1.77;;;10.50;99.90;;;;;;6265415;23;20031;-91
2022/04/11 17:36:27;;;;;;;2.90;1.02;;;10.00;99.90;;;;;;6269791;23;20016;-83
2022/04/11 17:38:53;;;;;;;3.47;0.93;;;10.30;99.90;;;;;;6263695;23;20458;-87
2022/04/11 17:41:19;;;;;;;5.43;1.35;;;10.80;99.90;;;;;;6248003;23;20015;-82
2022/04/11 17:43:45;;;;;;;6.50;1.60;;;10.20;99.90;;;;;;6255364;23;20027;-86
2022/04/11 17:46:11;;;;;;;2.35;1.10;;;9.70;99.90;;;;;;6250192;23;20019;-86
2022/04/11 17:48:38;;;;;;;5.53;1.70;;;9.60;99.90;;;;;;6222133;23;20030;-90
2022/04/11 17:51:05;;;;;;;4.03;1.50;;;9.70;99.90;;;;;;6251683;22;20055;-83
2022/04/11 17:53:35;;;;;;;4.68;1.40;;;10.00;99.90;;;;;;6280575;22;20015;-85
2022/04/11 17:56:02;;;;;;;3.13;1.05;;;9.40;99.90;;;;;;6252269;22;20465;-85
2022/04/11 17:58:30;;;;;;;5.40;1.65;;;10.00;99.90;;;;;;6277066;22;20020;-87
2022/04/11 18:00:56;;;;;;;3.58;1.85;;;9.30;99.90;;;;;;6249286;22;20125;-87
2022/04/11 18:03:22;;;;;;;4.78;1.50;;;9.50;99.90;;;;;;6277877;22;20099;-84
2022/04/11 18:05:48;;;;;;;4.47;1.10;;;9.80;99.90;;;;;;6277658;22;20058;-87
2022/04/11 18:08:14;;;;;;;3.58;1.15;;;9.60;99.90;;;;;;6277128;22;20353;-86
2022/04/11 18:10:40;;;;;;;3.13;1.60;;;9.60;99.90;;;;;;6249431;22;20030;-84
2022/04/11 18:13:07;;;;;;;5.45;1.73;;;8.90;99.90;;;;;;6249748;22;20020;-86
2022/04/11 18:15:36;;;;;;;4.57;1.35;;;8.80;99.90;;;;;;6276506;22;20081;-83
2022/04/11 18:18:02;;;;;;;5.28;1.60;;;9.10;99.90;;;;;;6276084;22;20027;-84
2022/04/11 18:20:28;;;;;;;2.47;1.33;;;8.60;99.90;;;;;;6276943;22;20018;-87
2022/04/11 18:22:55;;;;;;;5.45;1.30;;;8.60;99.90;;;;;;6249293;22;20090;-85
2022/04/11 18:25:21;;;;;;;5.47;1.40;;;8.40;99.90;;;;;;6276898;22;20020;-84
2022/04/11 18:27:47;;;;;;;5.15;1.73;;;9.60;99.90;;;;;;6276953;22;20028;-90
2022/04/11 18:33:02;;;;;;;3.03;1.60;;;8.30;99.90;;;;;;6282888;22;20099;-89
2022/04/11 18:35:28;;;;;;;4.18;1.30;;;8.30;99.90;;;;;;6252165;22;20028;-83
2022/04/11 18:37:58;;;;;;;3.33;1.15;;;8.20;99.90;;;;;;6281062;22;20106;-85
2022/04/11 18:40:26;;;;;;;3.80;1.40;;;8.50;99.90;;;;;;6276277;22;20086;-89
2022/04/11 18:42:52;;;;;;;3.28;1.10;;;8.00;99.90;;;;;;6276641;22;20401;-84
2022/04/11 18:45:18;;;;;;;3.60;1.42;;;8.00;99.90;;;;;;6277395;22;20066;-87
2022/04/11 18:47:43;;;;;;;2.85;1.10;;;8.00;99.90;;;;;;6277677;22;20020;-84
2022/04/11 18:50:10;;;;;;;3.22;1.30;;;7.90;99.90;;;;;;6251651;22;20106;-84
2022/04/11 18:52:37;;;;;;;1.63;0.95;;;7.80;99.90;;;;;;6250052;22;20073;-87
2022/04/11 18:55:03;;;;;;;3.33;1.15;;;8.70;99.90;;;;;;6276122;22;20102;-89
2022/04/11 18:57:29;;;;;;;2.67;1.00;;;7.80;99.90;;;;;;6277708;22;20031;-83
2022/04/11 18:59:55;;;;;;;2.80;1.10;;;7.80;99.90;;;;;;6283843;22;20027;-86
2022/04/11 19:02:21;;;;;;;4.43;1.30;;;8.50;99.90;;;;;;6251689;22;20019;-82
2022/04/11 19:04:47;;;;;;;4.10;1.30;;;7.90;99.90;;;;;;6257941;22;20023;-85
2022/04/11 19:07:13;;;;;;;4.25;1.05;;;7.80;99.90;;;;;;6282213;22;20066;-84
2022/04/11 19:09:40;;;;;;;2.83;1.08;;;7.80;99.90;;;;;;6255361;22;20024;-85
2022/04/11 19:12:07;;;;;;;2.58;0.88;;;7.80;99.90;;;;;;6254947;22;20034;-85
2022/04/11 19:14:34;;;;;;;3.00;0.80;;;7.70;99.90;;;;;;6278953;22;20054;-83
2022/04/11 19:17:00;;;;;;;2.47;1.13;;;7.70;99.90;;;;;;6259499;22;20023;-83
2022/04/11 19:19:26;;;;;;;1.63;1.10;;;7.70;99.90;;;;;;6283701;22;20020;-82
2022/04/11 19:21:52;;;;;;;1.40;1.08;;;7.70;99.90;;;;;;6255358;22;20090;-83
2022/04/11 19:24:17;;;;;;;2.97;1.00;;;8.30;99.90;;;;;;6259009;22;20023;-83
2022/04/11 19:26:44;;;;;;;2.50;0.98;;;7.60;99.90;;;;;;6253503;22;20350;-86
2022/04/11 19:29:09;;;;;;;2.10;0.82;;;7.50;99.90;;;;;;6270066;22;20054;-82
2022/04/11 19:31:35;;;;;;;3.05;1.20;;;7.60;99.90;;;;;;6276827;22;20019;-83
2022/04/11 19:34:02;;;;;;;1.50;0.90;;;8.00;99.90;;;;;;6277864;22;20489;-82
2022/04/11 19:36:29;;;;;;;2.40;1.02;;;8.10;99.90;;;;;;6251762;22;20031;-82
2022/04/11 19:38:58;;;;;;;2.90;1.20;;;7.80;99.90;;;;;;6275601;22;20062;-85
2022/04/11 19:41:25;;;;;;;1.90;0.98;;;7.90;99.90;;;;;;6250747;22;20019;-82
2022/04/11 19:43:50;;;;;;;2.70;1.10;;;7.50;99.90;;;;;;6249706;22;20038;-83
2022/04/11 19:46:16;;;;;;;3.90;1.17;;;7.80;99.90;;;;;;6277514;22;20328;-84
2022/04/11 19:51:27;;;;;;;1.35;0.90;;;7.20;99.90;;;;;;6276170;22;20019;-82
2022/04/11 19:53:53;;;;;;;2.78;1.05;;;8.30;99.90;;;;;;6276809;22;20043;-82
2022/04/11 19:56:19;;;;;;;2.35;0.90;;;7.60;99.90;;;;;;6277341;22;20031;-83
2022/04/11 19:58:45;;;;;;;3.05;1.20;;;7.50;99.90;;;;;;6248360;22;20353;-82
2022/04/11 20:01:14;;;;;;;1.67;0.90;;;8.30;99.90;;;;;;6276160;22;20516;-84
2022/04/11 20:03:44;;;;;;;3.05;0.98;;;7.60;99.90;;;;;;6249659;22;20511;-83
2022/04/11 20:06:11;;;;;;;3.00;1.10;;;7.70;99.90;;;;;;6276839;22;20022;-83
2022/04/11 20:08:38;;;;;;;2.03;0.93;;;7.00;99.90;;;;;;6276503;22;20016;-82
2022/04/11 20:11:05;;;;;;;4.95;1.20;;;7.20;99.90;;;;;;6276398;22;20016;-83
2022/04/11 20:13:32;;;;;;;4.95;1.48;;;6.90;99.90;;;;;;6275454;22;20124;-83
2022/04/11 20:15:58;;;;;;;2.42;1.15;;;7.00;99.90;;;;;;6275517;22;20082;-81
2022/04/11 20:18:23;;;;;;;7.68;1.50;;;6.90;99.90;;;;;;6275482;22;20062;-81
2022/04/11 20:20:49;;;;;;;2.28;0.98;;;7.20;99.90;;;;;;6276277;22;20015;-80
2022/04/11 20:23:16;;;;;;;4.97;1.20;;;6.80;99.90;;;;;;6276566;22;20461;-83
2022/04/11 20:25:46;;;;;;;4.55;1.10;;;6.70;99.90;;;;;;6277839;22;20047;-83
2022/04/11 20:28:12;;;;;;;1.38;1.08;;;6.70;99.90;;;;;;6276914;22;20462;-83
2022/04/11 20:30:39;;;;;;;2.72;1.15;;;6.50;99.90;;;;;;6250977;22;20031;-82
2022/04/11 20:33:05;;;;;;;4.88;1.20;;;6.60;99.90;;;;;;6276332;22;20334;-82
2022/04/11 20:35:31;;;;;;;1.35;0.80;;;6.60;99.90;;;;;;6276094;22;20027;-83